sensor_id;sensor_type;location;lat;lon;timestamp;temperature;humidity
16060;DHT22;8134;49.552;7.632;2023-08-17T00:01:28;20.10;99.90
16060;DHT22;8134;49.552;7.632;2023-08-17T00:03:54;20.20;99.90
16060;DHT22;8134;49.552;7.632;2023-08-17T00:06:22;20.10;99.90
16060;DHT22;8134;49.552;7.632;2023-08-17T00:08:53;20.10;99.90
16060;DHT22;8134;49.552;7.632;2023-08-17T00:11:24;20.10;99.90
16060;DHT22;8134;49.552;7.632;2023-08-17T00:14:05;20.10;99.90
16060;DHT22;8134;49.552;7.632;2023-08-17T00:16:31;20.00;99.90
16060;DHT22;8134;49.552;7.632;2023-08-17T00:18:59;20.00;99.90
16060;DHT22;8134;49.552;7.632;2023-08-17T00:21:25;20.00;99.90
16060;DHT22;8134;49.552;7.632;2023-08-17T00:23:56;20.00;99.90
16060;DHT22;8134;49.552;7.632;2023-08-17T00:26:29;20.00;99.90
16060;DHT22;8134;49.552;7.632;2023-08-17T00:29:01;20.00;99.90
16060;DHT22;8134;49.552;7.632;2023-08-17T00:31:32;19.90;99.90
16060;DHT22;8134;49.552;7.632;2023-08-17T00:33:58;19.90;99.90
16060;DHT22;8134;49.552;7.632;2023-08-17T00:36:26;20.00;99.90
16060;DHT22;8134;49.552;7.632;2023-08-17T00:38:54;20.00;99.90
16060;DHT22;8134;49.552;7.632;2023-08-17T00:41:22;20.00;99.90
16060;DHT22;8134;49.552;7.632;2023-08-17T00:43:47;20.00;99.90
16060;DHT22;8134;49.552;7.632;2023-08-17T00:46:13;20.10;99.90
16060;DHT22;8134;49.552;7.632;2023-08-17T00:48:42;20.10;99.90
16060;DHT22;8134;49.552;7.632;2023-08-17T00:51:08;20.10;99.90
16060;DHT22;8134;49.552;7.632;2023-08-17T00:53:37;20.10;99.90
16060;DHT22;8134;49.552;7.632;2023-08-17T00:56:08;20.10;99.90
16060;DHT22;8134;49.552;7.632;2023-08-17T00:58:42;20.00;99.90
16060;DHT22;8134;49.552;7.632;2023-08-17T01:01:10;20.00;99.90
16060;DHT22;8134;49.552;7.632;2023-08-17T01:03:44;20.00;99.90
16060;DHT22;8134;49.552;7.632;2023-08-17T01:06:10;19.90;99.90
16060;DHT22;8134;49.552;7.632;2023-08-17T01:08:43;19.80;99.90
16060;DHT22;8134;49.552;7.632;2023-08-17T01:11:29;19.80;99.90
16060;DHT22;8134;49.552;7.632;2023-08-17T01:14:13;19.80;99.90
16060;DHT22;8134;49.552;7.632;2023-08-17T01:16:48;19.90;99.90
16060;DHT22;8134;49.552;7.632;2023-08-17T01:19:33;19.90;99.90
16060;DHT22;8134;49.552;7.632;2023-08-17T01:22:24;19.90;99.90
16060;DHT22;8134;49.552;7.632;2023-08-17T01:25:08;19.80;99.90
16060;DHT22;8134;49.552;7.632;2023-08-17T01:27:40;19.80;99.90
16060;DHT22;8134;49.552;7.632;2023-08-17T01:30:53;19.80;99.90
16060;DHT22;8134;49.552;7.632;2023-08-17T01:33:24;19.70;99.90
16060;DHT22;8134;49.552;7.632;2023-08-17T01:36:04;19.70;99.90
16060;DHT22;8134;49.552;7.632;2023-08-17T01:38:38;19.70;99.90
16060;DHT22;8134;49.552;7.632;2023-08-17T01:41:33;19.70;99.90
16060;DHT22;8134;49.552;7.632;2023-08-17T01:43:59;19.70;99.90
16060;DHT22;8134;49.552;7.632;2023-08-17T01:46:31;19.70;99.90
16060;DHT22;8134;49.552;7.632;2023-08-17T01:49:12;19.70;99.90
16060;DHT22;8134;49.552;7.632;2023-08-17T01:51:43;19.60;99.90
16060;DHT22;8134;49.552;7.632;2023-08-17T01:54:21;19.70;99.90
16060;DHT22;8134;49.552;7.632;2023-08-17T01:57:09;19.70;99.90
16060;DHT22;8134;49.552;7.632;2023-08-17T02:00:01;19.70;99.90
16060;DHT22;8134;49.552;7.632;2023-08-17T02:02:50;19.70;99.90
16060;DHT22;8134;49.552;7.632;2023-08-17T02:08:41;19.60;99.90
16060;DHT22;8134;49.552;7.632;2023-08-17T02:11:21;19.60;99.90
16060;DHT22;8134;49.552;7.632;2023-08-17T02:14:10;19.60;99.90
16060;DHT22;8134;49.552;7.632;2023-08-17T02:20:02;19.70;99.90
16060;DHT22;8134;49.552;7.632;2023-08-17T02:22:52;19.80;99.90
16060;DHT22;8134;49.552;7.632;2023-08-17T02:25:36;19.80;99.90
16060;DHT22;8134;49.552;7.632;2023-08-17T02:28:39;19.70;99.90
16060;DHT22;8134;49.552;7.632;2023-08-17T02:31:27;19.80;99.90
16060;DHT22;8134;49.552;7.632;2023-08-17T02:34:11;19.80;99.90
16060;DHT22;8134;49.552;7.632;2023-08-17T02:36:48;19.80;99.90
16060;DHT22;8134;49.552;7.632;2023-08-17T02:39:19;19.80;99.90
16060;DHT22;8134;49.552;7.632;2023-08-17T02:41:50;19.80;99.90
16060;DHT22;8134;49.552;7.632;2023-08-17T02:44:18;19.80;99.90
16060;DHT22;8134;49.552;7.632;2023-08-17T02:47:05;19.90;99.90
16060;DHT22;8134;49.552;7.632;2023-08-17T02:55:20;19.70;99.90
16060;DHT22;8134;49.552;7.632;2023-08-17T03:04:07;19.60;99.90
16060;DHT22;8134;49.552;7.632;2023-08-17T03:25:23;19.20;99.90
16060;DHT22;8134;49.552;7.632;2023-08-17T04:33:09;18.90;99.90
16060;DHT22;8134;49.552;7.632;2023-08-17T04:55:04;19.20;99.90
16060;DHT22;8134;49.552;7.632;2023-08-17T04:57:52;19.20;99.90
16060;DHT22;8134;49.552;7.632;2023-08-17T05:06:44;19.20;99.90
16060;DHT22;8134;49.552;7.632;2023-08-17T05:12:48;19.20;99.90
16060;DHT22;8134;49.552;7.632;2023-08-17T05:15:50;19.20;99.90
16060;DHT22;8134;49.552;7.632;2023-08-17T05:18:33;19.30;99.90
16060;DHT22;8134;49.552;7.632;2023-08-17T05:21:26;19.30;99.90
16060;DHT22;8134;49.552;7.632;2023-08-17T05:27:38;19.30;99.90
16060;DHT22;8134;49.552;7.632;2023-08-17T05:30:16;19.30;99.90
16060;DHT22;8134;49.552;7.632;2023-08-17T05:33:15;19.30;99.90
16060;DHT22;8134;49.552;7.632;2023-08-17T05:38:47;19.40;99.90
16060;DHT22;8134;49.552;7.632;2023-08-17T05:41:37;19.30;99.90
16060;DHT22;8134;49.552;7.632;2023-08-17T05:44:35;19.30;99.90
16060;DHT22;8134;49.552;7.632;2023-08-17T06:00:01;19.40;99.90
16060;DHT22;8134;49.552;7.632;2023-08-17T21:21:51;22.30;99.90
16060;DHT22;8134;49.552;7.632;2023-08-17T21:24:24;22.20;99.90
16060;DHT22;8134;49.552;7.632;2023-08-17T21:27:08;22.20;99.90
